Time;durP1;ratioP1;P1;durP2;ratioP2;P2;SDS_P1;SDS_P2;PMS_P1;PMS_P2;Temp;Humidity;BMP_temperature;BMP_pressure;BME280_temperature;BME280_humidity;BME280_pressure;Samples;Min_cycle;Max_cycle;Signal;HPM_P1;HPM_P2
2023/05/08 00:01:15;;;;;;;4.57;4.13;;;;;;;;;;5099457;28;20208;-66
2023/05/08 00:03:44;;;;;;;4.88;4.03;;;;;;;;;;5099330;28;20199;-67
2023/05/08 00:06:11;;;;;;;4.00;3.70;;;;;;;;;;5099669;28;20225;-66
2023/05/08 00:08:39;;;;;;;4.20;3.80;;;;;;;;;;5099427;28;20231;-66
2023/05/08 00:11:06;;;;;;;3.85;3.42;;;;;;;;;;5099770;28;20203;-67
2023/05/08 00:13:34;;;;;;;63.25;34.88;;;;;;;;;;5099886;28;20273;-67
2023/05/08 00:16:01;;;;;;;138.40;69.93;;;;;;;;;;5099382;28;20210;-66
2023/05/08 00:18:29;;;;;;;166.48;83.00;;;;;;;;;;5099036;28;20211;-67
2023/05/08 00:20:58;;;;;;;161.50;83.57;;;;;;;;;;5099734;28;20268;-67
2023/05/08 00:23:25;;;;;;;156.77;77.82;;;;;;;;;;5099228;28;20207;-67
2023/05/08 00:25:52;;;;;;;141.55;71.93;;;;;;;;;;5098782;28;20235;-67
2023/05/08 00:28:20;;;;;;;145.25;68.65;;;;;;;;;;5098789;28;20214;-67
2023/05/08 00:30:47;;;;;;;139.75;70.32;;;;;;;;;;5099180;28;20203;-67
2023/05/08 00:33:14;;;;;;;135.63;68.32;;;;;;;;;;5098679;28;20232;-67
2023/05/08 00:35:42;;;;;;;129.80;64.72;;;;;;;;;;5098580;28;20230;-66
2023/05/08 00:38:11;;;;;;;126.75;62.78;;;;;;;;;;5098801;28;20215;-66
2023/05/08 00:40:38;;;;;;;112.75;60.35;;;;;;;;;;5098861;28;20203;-65
2023/05/08 00:43:06;;;;;;;110.78;57.28;;;;;;;;;;5098711;28;20192;-65
2023/05/08 00:45:35;;;;;;;104.78;55.92;;;;;;;;;;5098427;28;20227;-67
2023/05/08 00:48:02;;;;;;;99.88;53.45;;;;;;;;;;5098553;28;20290;-65
2023/05/08 00:50:30;;;;;;;102.93;53.00;;;;;;;;;;5097884;28;20492;-65
2023/05/08 00:52:59;;;;;;;97.50;50.85;;;;;;;;;;5097714;28;20582;-64
2023/05/08 00:55:28;;;;;;;91.43;49.50;;;;;;;;;;5098489;28;20203;-65
2023/05/08 00:57:55;;;;;;;88.10;48.45;;;;;;;;;;5098750;28;20203;-65
2023/05/08 01:00:23;;;;;;;84.53;45.47;;;;;;;;;;5098561;28;20203;-66
2023/05/08 01:02:51;;;;;;;82.03;45.08;;;;;;;;;;5098639;28;20598;-64
2023/05/08 01:05:18;;;;;;;79.05;44.83;;;;;;;;;;5098238;28;20204;-65
2023/05/08 01:07:46;;;;;;;85.35;44.95;;;;;;;;;;5098688;28;20498;-66
2023/05/08 01:10:13;;;;;;;75.07;41.88;;;;;;;;;;5098632;28;20584;-65
2023/05/08 01:12:48;;;;;;;71.70;40.65;;;;;;;;;;5098363;28;20210;-65
2023/05/08 01:15:19;;;;;;;71.07;41.20;;;;;;;;;;5098371;28;20226;-65
2023/05/08 01:17:51;;;;;;;70.60;39.22;;;;;;;;;;5098626;28;20203;-65
2023/05/08 01:20:32;;;;;;;67.88;39.25;;;;;;;;;;5098488;28;20464;-65
2023/05/08 01:23:08;;;;;;;66.28;37.58;;;;;;;;;;5098099;28;20250;-65
2023/05/08 01:25:53;;;;;;;63.10;36.50;;;;;;;;;;5098432;28;20245;-64
2023/05/08 01:28:39;;;;;;;62.28;34.65;;;;;;;;;;5097839;28;20563;-64
2023/05/08 01:31:12;;;;;;;63.10;34.58;;;;;;;;;;5098384;28;20217;-64
2023/05/08 01:33:45;;;;;;;57.83;33.35;;;;;;;;;;5097903;28;20323;-64
2023/05/08 01:36:18;;;;;;;53.97;32.72;;;;;;;;;;5098123;28;20207;-65
2023/05/08 01:38:53;;;;;;;55.35;32.63;;;;;;;;;;5098261;28;20284;-65
2023/05/08 01:41:26;;;;;;;54.00;31.15;;;;;;;;;;5098083;28;20582;-65
2023/05/08 01:43:56;;;;;;;54.30;32.83;;;;;;;;;;5098054;28;20483;-64
2023/05/08 01:46:24;;;;;;;47.42;29.75;;;;;;;;;;5097541;28;20218;-65
2023/05/08 01:48:57;;;;;;;49.75;29.20;;;;;;;;;;5097718;28;20203;-64
2023/05/08 01:51:26;;;;;;;48.65;28.45;;;;;;;;;;5097586;28;20203;-64
2023/05/08 01:53:56;;;;;;;47.85;28.23;;;;;;;;;;5097723;28;20647;-65
2023/05/08 01:56:25;;;;;;;45.97;27.00;;;;;;;;;;5098035;28;20214;-64
2023/05/08 01:58:55;;;;;;;45.78;26.60;;;;;;;;;;5097390;28;20340;-64
2023/05/08 02:01:24;;;;;;;40.15;24.40;;;;;;;;;;5098169;28;20306;-64
2023/05/08 02:03:52;;;;;;;39.83;25.38;;;;;;;;;;5100376;28;20210;-64
2023/05/08 02:06:22;;;;;;;39.97;24.75;;;;;;;;;;5101684;28;20203;-63
2023/05/08 02:08:50;;;;;;;40.67;23.77;;;;;;;;;;5101585;28;20215;-65
2023/05/08 02:11:18;;;;;;;40.88;24.60;;;;;;;;;;5101712;28;20213;-65
2023/05/08 02:13:47;;;;;;;38.10;22.92;;;;;;;;;;5101734;28;20227;-64
2023/05/08 02:16:15;;;;;;;36.80;23.65;;;;;;;;;;5101702;28;20755;-64
2023/05/08 02:18:44;;;;;;;34.60;22.23;;;;;;;;;;5101440;28;20218;-65
2023/05/08 02:21:13;;;;;;;34.20;21.65;;;;;;;;;;5101468;28;20214;-64
2023/05/08 02:23:42;;;;;;;34.22;21.30;;;;;;;;;;5101343;28;20200;-65
2023/05/08 02:26:10;;;;;;;31.98;20.20;;;;;;;;;;5101480;28;20242;-65
2023/05/08 02:28:39;;;;;;;32.10;20.70;;;;;;;;;;5101691;28;20204;-65
2023/05/08 02:31:06;;;;;;;31.08;19.73;;;;;;;;;;5101480;28;20204;-65
2023/05/08 02:33:34;;;;;;;31.05;20.05;;;;;;;;;;5101383;28;20231;-65
2023/05/08 02:36:03;;;;;;;31.55;18.98;;;;;;;;;;5101176;28;20696;-65
2023/05/08 02:38:31;;;;;;;28.88;18.27;;;;;;;;;;5101153;28;20214;-66
2023/05/08 02:41:02;;;;;;;27.80;18.13;;;;;;;;;;5101176;28;20237;-65
2023/05/08 02:43:30;;;;;;;26.30;16.88;;;;;;;;;;5101254;28;20206;-65
2023/05/08 02:46:02;;;;;;;27.15;17.58;;;;;;;;;;5101101;28;20203;-65
2023/05/08 02:48:33;;;;;;;26.65;16.85;;;;;;;;;;5100952;28;20623;-65
2023/05/08 02:51:05;;;;;;;24.17;15.82;;;;;;;;;;5101195;28;20211;-65
2023/05/08 02:53:36;;;;;;;25.50;16.15;;;;;;;;;;5100581;28;20212;-65
2023/05/08 02:56:09;;;;;;;25.50;16.38;;;;;;;;;;5100364;28;20207;-66
2023/05/08 02:58:39;;;;;;;24.23;16.05;;;;;;;;;;5100626;28;20603;-65
2023/05/08 03:01:09;;;;;;;23.23;14.93;;;;;;;;;;5100991;28;20210;-65
2023/05/08 03:03:39;;;;;;;23.38;14.40;;;;;;;;;;5100780;28;20219;-67
2023/05/08 03:06:09;;;;;;;23.85;14.50;;;;;;;;;;5100740;28;20212;-65
2023/05/08 03:08:37;;;;;;;19.85;13.35;;;;;;;;;;5100248;28;20200;-65
2023/05/08 03:11:09;;;;;;;19.55;13.38;;;;;;;;;;5100483;28;20210;-65
2023/05/08 03:13:39;;;;;;;20.50;13.93;;;;;;;;;;5100082;28;20302;-66
2023/05/08 03:16:07;;;;;;;18.70;12.98;;;;;;;;;;5100186;28;20214;-65
2023/05/08 03:18:36;;;;;;;19.00;13.32;;;;;;;;;;5100265;28;20215;-66
2023/05/08 03:21:05;;;;;;;20.50;13.45;;;;;;;;;;5100752;28;20203;-65
2023/05/08 03:23:34;;;;;;;16.98;12.30;;;;;;;;;;5100600;28;20204;-64
2023/05/08 03:26:02;;;;;;;17.25;11.77;;;;;;;;;;5100148;28;20239;-65
2023/05/08 03:28:31;;;;;;;17.38;11.65;;;;;;;;;;5100028;28;20214;-65
2023/05/08 03:30:59;;;;;;;16.25;11.73;;;;;;;;;;5100154;28;20204;-64
2023/05/08 03:33:27;;;;;;;15.45;11.35;;;;;;;;;;5099958;28;20210;-64
2023/05/08 03:35:55;;;;;;;17.10;11.30;;;;;;;;;;5099966;28;20227;-64
2023/05/08 03:38:22;;;;;;;15.25;11.15;;;;;;;;;;5100086;28;20208;-65
2023/05/08 03:40:50;;;;;;;15.60;11.38;;;;;;;;;;5099731;28;20215;-64
2023/05/08 03:43:17;;;;;;;15.15;10.82;;;;;;;;;;5099899;28;20311;-64
2023/05/08 03:45:47;;;;;;;15.68;10.55;;;;;;;;;;5099753;28;20200;-64
2023/05/08 03:48:15;;;;;;;13.77;10.23;;;;;;;;;;5099040;28;20207;-64
2023/05/08 03:50:43;;;;;;;14.43;10.10;;;;;;;;;;5099566;28;20512;-64
2023/05/08 03:53:10;;;;;;;14.10;10.07;;;;;;;;;;5098784;28;20203;-64
2023/05/08 03:55:38;;;;;;;14.93;10.25;;;;;;;;;;5099048;28;20224;-64
2023/05/08 03:58:09;;;;;;;13.35;10.07;;;;;;;;;;5099333;28;20210;-64
2023/05/08 04:00:42;;;;;;;13.93;9.73;;;;;;;;;;5098958;28;20216;-67
2023/05/08 04:03:19;;;;;;;12.43;9.52;;;;;;;;;;5099070;28;20203;-64
2023/05/08 04:05:51;;;;;;;12.00;8.85;;;;;;;;;;5099082;28;20294;-64
2023/05/08 04:08:21;;;;;;;11.68;8.70;;;;;;;;;;5099197;28;20580;-64
2023/05/08 04:10:50;;;;;;;10.60;8.30;;;;;;;;;;5098271;28;20208;-64
2023/05/08 04:13:20;;;;;;;10.68;8.45;;;;;;;;;;5098665;28;20203;-65
2023/05/08 04:15:51;;;;;;;11.48;8.55;;;;;;;;;;5098732;28;20231;-64
2023/05/08 04:18:25;;;;;;;10.23;7.88;;;;;;;;;;5099158;28;20207;-64
2023/05/08 04:20:54;;;;;;;11.18;7.88;;;;;;;;;;5098357;28;20587;-64
2023/05/08 04:23:22;;;;;;;8.25;7.32;;;;;;;;;;5098371;28;20204;-64
2023/05/08 04:25:50;;;;;;;10.00;7.60;;;;;;;;;;5097337;28;20238;-64
2023/05/08 04:28:18;;;;;;;8.90;7.75;;;;;;;;;;5097856;28;20214;-65
2023/05/08 04:30:46;;;;;;;9.95;7.05;;;;;;;;;;5098414;28;20211;-64
2023/05/08 04:33:13;;;;;;;10.20;7.07;;;;;;;;;;5097798;28;20353;-64
2023/05/08 04:35:42;;;;;;;9.35;7.10;;;;;;;;;;5097917;28;20219;-65
2023/05/08 04:38:09;;;;;;;8.48;6.88;;;;;;;;;;5097581;28;20203;-64
2023/05/08 04:40:37;;;;;;;7.50;6.75;;;;;;;;;;5097503;28;20212;-64
2023/05/08 04:43:04;;;;;;;8.23;6.43;;;;;;;;;;5097132;28;20204;-64
2023/05/08 04:45:32;;;;;;;10.20;7.07;;;;;;;;;;5097035;28;20210;-71
2023/05/08 04:47:59;;;;;;;8.88;6.90;;;;;;;;;;5096154;28;20515;-64
2023/05/08 04:50:26;;;;;;;9.40;6.55;;;;;;;;;;5096128;28;20310;-64
2023/05/08 04:52:56;;;;;;;8.10;6.43;;;;;;;;;;5096781;28;20439;-64
2023/05/08 04:55:23;;;;;;;7.07;6.00;;;;;;;;;;5098710;28;20227;-64
2023/05/08 04:57:50;;;;;;;6.20;5.60;;;;;;;;;;5115747;28;20502;-64
2023/05/08 05:00:18;;;;;;;7.05;5.75;;;;;;;;;;5116001;28;20198;-64
2023/05/08 05:02:46;;;;;;;6.65;5.60;;;;;;;;;;5115926;28;20202;-64
2023/05/08 05:05:13;;;;;;;6.28;5.53;;;;;;;;;;5115382;28;20203;-64
2023/05/08 05:07:40;;;;;;;7.35;6.07;;;;;;;;;;5115532;28;20203;-65
2023/05/08 05:10:13;;;;;;;6.78;5.43;;;;;;;;;;5113689;28;20207;-65
2023/05/08 05:12:43;;;;;;;6.40;5.75;;;;;;;;;;5095858;28;20199;-66
2023/05/08 05:15:12;;;;;;;7.20;5.25;;;;;;;;;;5094897;28;20231;-66
2023/05/08 05:17:39;;;;;;;5.60;5.00;;;;;;;;;;5094540;28;20204;-65
2023/05/08 05:20:07;;;;;;;6.35;5.47;;;;;;;;;;5094913;28;20218;-65
2023/05/08 05:22:35;;;;;;;6.13;5.22;;;;;;;;;;5095873;28;20207;-65
2023/05/08 05:25:02;;;;;;;6.22;5.35;;;;;;;;;;5095637;28;20223;-66
2023/05/08 05:27:31;;;;;;;5.68;5.07;;;;;;;;;;5095544;28;20195;-66
2023/05/08 05:29:58;;;;;;;6.20;4.97;;;;;;;;;;5094649;28;20200;-65
2023/05/08 05:32:26;;;;;;;5.15;4.65;;;;;;;;;;5094270;28;20595;-65
2023/05/08 05:34:54;;;;;;;5.82;5.05;;;;;;;;;;5094757;28;20231;-65
2023/05/08 05:37:21;;;;;;;5.57;4.80;;;;;;;;;;5095090;28;20215;-65
2023/05/08 05:39:49;;;;;;;5.38;4.60;;;;;;;;;;5094972;28;20218;-65
2023/05/08 05:42:16;;;;;;;5.30;4.80;;;;;;;;;;5094732;28;20676;-65
2023/05/08 05:44:45;;;;;;;5.82;4.82;;;;;;;;;;5094276;28;20210;-66
2023/05/08 05:47:12;;;;;;;4.78;4.32;;;;;;;;;;5094294;28;20205;-65
2023/05/08 05:49:41;;;;;;;5.03;4.53;;;;;;;;;;5095065;28;20203;-65
2023/05/08 05:52:09;;;;;;;5.03;4.50;;;;;;;;;;5095461;28;20610;-65
2023/05/08 05:54:37;;;;;;;4.55;4.13;;;;;;;;;;5094013;28;20223;-66
2023/05/08 05:57:04;;;;;;;4.30;3.90;;;;;;;;;;5093580;28;20264;-65
2023/05/08 05:59:31;;;;;;;5.90;4.10;;;;;;;;;;5093887;28;20200;-65
2023/05/08 06:02:00;;;;;;;4.55;4.15;;;;;;;;;;5094202;28;20195;-65
2023/05/08 06:04:27;;;;;;;4.07;3.70;;;;;;;;;;5095258;28;20195;-65
2023/05/08 06:06:55;;;;;;;4.35;3.95;;;;;;;;;;5094988;28;20497;-65
2023/05/08 06:09:23;;;;;;;4.35;3.95;;;;;;;;;;5094357;28;20305;-65
2023/05/08 06:11:50;;;;;;;4.45;4.05;;;;;;;;;;5094584;28;20214;-65
2023/05/08 06:14:17;;;;;;;4.40;3.85;;;;;;;;;;5094683;28;20204;-64
2023/05/08 06:16:45;;;;;;;4.43;4.03;;;;;;;;;;5095118;28;20235;-65
2023/05/08 06:19:13;;;;;;;5.03;3.70;;;;;;;;;;5096285;28;20483;-65
2023/05/08 06:21:41;;;;;;;4.65;4.25;;;;;;;;;;5095910;28;20567;-65
2023/05/08 06:24:08;;;;;;;4.18;3.80;;;;;;;;;;5094798;28;20196;-65
2023/05/08 06:26:35;;;;;;;4.10;3.70;;;;;;;;;;5095021;28;20226;-65
2023/05/08 06:29:03;;;;;;;3.92;3.53;;;;;;;;;;5094738;28;20211;-65
2023/05/08 06:31:30;;;;;;;4.55;4.10;;;;;;;;;;5094610;28;20560;-65
2023/05/08 06:33:57;;;;;;;4.38;3.97;;;;;;;;;;5095177;28;20503;-64
2023/05/08 06:36:27;;;;;;;4.80;3.80;;;;;;;;;;5094721;28;20227;-65
2023/05/08 06:38:54;;;;;;;4.07;3.67;;;;;;;;;;5094253;28;20311;-64
2023/05/08 06:41:21;;;;;;;4.25;3.85;;;;;;;;;;5094694;28;20750;-64
2023/05/08 06:43:49;;;;;;;4.30;3.90;;;;;;;;;;5094630;28;20196;-64
2023/05/08 06:46:16;;;;;;;4.07;3.67;;;;;;;;;;5094942;28;20215;-64
2023/05/08 06:48:44;;;;;;;4.20;3.90;;;;;;;;;;5095541;28;20203;-65
2023/05/08 06:51:11;;;;;;;4.20;3.80;;;;;;;;;;5097471;28;20195;-64
2023/05/08 06:53:40;;;;;;;5.15;4.13;;;;;;;;;;5097701;28;20206;-65
2023/05/08 06:56:11;;;;;;;4.10;3.70;;;;;;;;;;5101653;28;20245;-65
2023/05/08 06:58:41;;;;;;;3.80;3.50;;;;;;;;;;5118844;28;20211;-65
2023/05/08 07:01:09;;;;;;;4.07;3.78;;;;;;;;;;5118354;28;20211;-64
2023/05/08 07:03:40;;;;;;;3.90;3.50;;;;;;;;;;5119432;28;20207;-64
2023/05/08 07:06:08;;;;;;;4.88;3.58;;;;;;;;;;5119756;27;20203;-64
2023/05/08 07:08:35;;;;;;;4.10;3.70;;;;;;;;;;5119253;28;20211;-65
2023/05/08 07:11:04;;;;;;;4.03;3.72;;;;;;;;;;5118749;28;20202;-65
2023/05/08 07:13:32;;;;;;;4.18;3.78;;;;;;;;;;5118885;28;20602;-65
2023/05/08 07:15:59;;;;;;;4.45;4.10;;;;;;;;;;5118629;28;20618;-64
2023/05/08 07:18:27;;;;;;;3.85;3.55;;;;;;;;;;5118097;28;20203;-65
2023/05/08 07:20:54;;;;;;;4.05;3.75;;;;;;;;;;5117867;28;20213;-65
2023/05/08 07:23:22;;;;;;;4.20;3.90;;;;;;;;;;5118242;28;20213;-64
2023/05/08 07:25:49;;;;;;;3.95;3.65;;;;;;;;;;5118183;28;20522;-64
2023/05/08 07:28:18;;;;;;;4.25;3.85;;;;;;;;;;5116957;28;20218;-64
2023/05/08 07:30:45;;;;;;;3.92;3.63;;;;;;;;;;5118666;28;20203;-65
2023/05/08 07:33:13;;;;;;;4.13;3.83;;;;;;;;;;5118337;28;20210;-65
2023/05/08 07:35:40;;;;;;;3.55;3.25;;;;;;;;;;5117191;28;20223;-65
2023/05/08 07:38:07;;;;;;;4.03;3.67;;;;;;;;;;5117678;28;20199;-64
2023/05/08 07:40:35;;;;;;;4.22;3.92;;;;;;;;;;5117816;28;20213;-64
2023/05/08 07:43:02;;;;;;;3.90;3.60;;;;;;;;;;5117665;28;20218;-65
2023/05/08 07:45:31;;;;;;;4.15;3.78;;;;;;;;;;5118086;28;20199;-66
2023/05/08 07:47:59;;;;;;;4.03;3.72;;;;;;;;;;5117271;28;20202;-64
2023/05/08 07:50:27;;;;;;;4.20;3.80;;;;;;;;;;5116848;28;20203;-65
2023/05/08 07:52:54;;;;;;;3.97;3.67;;;;;;;;;;5117315;28;20230;-64
2023/05/08 07:55:22;;;;;;;4.18;3.58;;;;;;;;;;5116633;28;20618;-65
2023/05/08 07:57:49;;;;;;;4.53;4.20;;;;;;;;;;5116760;28;20301;-64
2023/05/08 08:00:17;;;;;;;3.80;3.50;;;;;;;;;;5117446;28;20203;-65
2023/05/08 08:02:46;;;;;;;4.10;3.80;;;;;;;;;;5116869;28;20225;-65
2023/05/08 08:05:13;;;;;;;4.20;3.80;;;;;;;;;;5116756;28;20307;-65
2023/05/08 08:07:41;;;;;;;3.67;3.38;;;;;;;;;;5117624;28;20301;-65
2023/05/08 08:10:08;;;;;;;4.20;3.80;;;;;;;;;;5117824;28;20199;-65
2023/05/08 08:12:36;;;;;;;4.10;3.80;;;;;;;;;;5117100;28;20289;-65
2023/05/08 08:15:04;;;;;;;3.63;3.33;;;;;;;;;;5117273;28;20205;-65
2023/05/08 08:17:31;;;;;;;3.85;3.55;;;;;;;;;;5117250;28;20632;-64
2023/05/08 08:20:00;;;;;;;3.92;3.63;;;;;;;;;;5116993;28;20203;-65
2023/05/08 08:22:28;;;;;;;3.63;3.42;;;;;;;;;;5117897;28;20211;-64
2023/05/08 08:24:56;;;;;;;4.10;3.80;;;;;;;;;;5117459;28;20239;-65
2023/05/08 08:27:23;;;;;;;4.00;3.70;;;;;;;;;;5117400;28;20234;-65
2023/05/08 08:29:50;;;;;;;3.72;3.42;;;;;;;;;;5116573;28;20200;-69
2023/05/08 08:32:18;;;;;;;3.92;3.63;;;;;;;;;;5116647;28;20203;-65
2023/05/08 08:34:45;;;;;;;3.88;3.60;;;;;;;;;;5116413;28;20244;-64
2023/05/08 08:37:14;;;;;;;4.25;3.85;;;;;;;;;;5116615;28;20226;-65
2023/05/08 08:39:42;;;;;;;3.97;3.67;;;;;;;;;;5117316;28;20294;-64
2023/05/08 08:42:09;;;;;;;3.90;3.60;;;;;;;;;;5117125;28;20293;-65
2023/05/08 08:44:36;;;;;;;3.85;3.55;;;;;;;;;;5116732;28;20498;-65
2023/05/08 08:47:05;;;;;;;3.63;3.40;;;;;;;;;;5116678;28;20195;-65
2023/05/08 08:49:35;;;;;;;3.92;3.63;;;;;;;;;;5116860;28;20542;-65
2023/05/08 08:52:04;;;;;;;3.95;3.65;;;;;;;;;;5116125;28;20575;-65
2023/05/08 08:54:35;;;;;;;3.75;3.45;;;;;;;;;;5116257;28;20205;-64
2023/05/08 08:57:06;;;;;;;3.60;3.38;;;;;;;;;;5116148;28;20233;-64
2023/05/08 08:59:34;;;;;;;3.83;3.53;;;;;;;;;;5117056;28;20203;-65
2023/05/08 09:02:06;;;;;;;3.80;3.50;;;;;;;;;;5116373;28;20210;-65
2023/05/08 09:04:33;;;;;;;3.50;3.25;;;;;;;;;;5116562;28;20210;-64
2023/05/08 09:07:04;;;;;;;4.00;3.70;;;;;;;;;;5115969;28;20202;-64
2023/05/08 09:09:34;;;;;;;3.60;3.38;;;;;;;;;;5116100;28;20198;-64
2023/05/08 09:12:02;;;;;;;3.75;3.45;;;;;;;;;;5115394;28;20214;-64
2023/05/08 09:14:29;;;;;;;3.90;3.60;;;;;;;;;;5116693;28;20203;-64
2023/05/08 09:16:57;;;;;;;3.55;3.35;;;;;;;;;;5116501;28;20630;-64
2023/05/08 09:19:24;;;;;;;3.72;3.42;;;;;;;;;;5116085;28;20263;-64
2023/05/08 09:21:52;;;;;;;4.05;3.75;;;;;;;;;;5115305;28;20203;-64
2023/05/08 09:24:21;;;;;;;3.90;3.60;;;;;;;;;;5114615;28;20222;-64
2023/05/08 09:26:50;;;;;;;3.80;3.60;;;;;;;;;;5115916;28;20198;-64
2023/05/08 09:29:18;;;;;;;4.00;3.70;;;;;;;;;;5115349;28;20203;-64
2023/05/08 09:31:47;;;;;;;3.65;3.45;;;;;;;;;;5115060;28;20203;-65
2023/05/08 09:34:23;;;;;;;3.65;3.40;;;;;;;;;;5114537;28;20218;-65
2023/05/08 09:36:51;;;;;;;4.05;3.75;;;;;;;;;;5115717;28;20333;-64
2023/05/08 09:39:22;;;;;;;3.38;3.17;;;;;;;;;;5115087;28;20298;-65
2023/05/08 09:42:00;;;;;;;3.75;3.45;;;;;;;;;;5115644;28;20234;-65
2023/05/08 09:44:28;;;;;;;4.05;3.75;;;;;;;;;;5114409;28;20206;-64
2023/05/08 09:47:10;;;;;;;3.55;3.35;;;;;;;;;;5115347;28;20203;-64
2023/05/08 09:49:39;;;;;;;3.50;3.30;;;;;;;;;;5115798;28;20314;-65
2023/05/08 09:52:07;;;;;;;3.60;3.40;;;;;;;;;;5115590;28;20316;-64
2023/05/08 09:54:34;;;;;;;3.45;3.25;;;;;;;;;;5115441;28;20514;-64
2023/05/08 09:57:12;;;;;;;3.30;3.10;;;;;;;;;;5114941;28;20237;-64
2023/05/08 09:59:40;;;;;;;3.50;3.30;;;;;;;;;;5115060;28;20267;-64
2023/05/08 10:02:15;;;;;;;3.63;3.42;;;;;;;;;;5115578;28;20206;-65
2023/05/08 10:04:42;;;;;;;3.40;3.20;;;;;;;;;;5115941;28;20494;-64
2023/05/08 10:07:09;;;;;;;3.80;3.50;;;;;;;;;;5115574;28;20206;-64
2023/05/08 10:09:37;;;;;;;3.55;3.35;;;;;;;;;;5116118;28;20211;-65
2023/05/08 10:12:06;;;;;;;3.55;3.35;;;;;;;;;;5115385;28;20495;-64
2023/05/08 10:14:33;;;;;;;3.60;3.40;;;;;;;;;;5114335;28;20207;-65
2023/05/08 10:17:06;;;;;;;3.55;3.25;;;;;;;;;;5114772;28;20222;-65
2023/05/08 10:19:34;;;;;;;3.33;3.13;;;;;;;;;;5114834;28;20206;-65
2023/05/08 10:22:02;;;;;;;3.80;3.50;;;;;;;;;;5114998;28;20199;-65
2023/05/08 10:24:34;;;;;;;3.40;3.20;;;;;;;;;;5116123;28;20226;-65
2023/05/08 10:27:05;;;;;;;3.20;3.00;;;;;;;;;;5118896;28;20221;-64
2023/05/08 10:29:39;;;;;;;3.42;3.13;;;;;;;;;;5118357;27;20264;-65
2023/05/08 10:32:09;;;;;;;3.30;3.10;;;;;;;;;;5117910;28;20194;-65
2023/05/08 10:34:40;;;;;;;3.30;3.10;;;;;;;;;;5117192;28;20503;-64
2023/05/08 10:37:09;;;;;;;3.40;3.20;;;;;;;;;;5117482;28;20234;-64
2023/05/08 10:39:37;;;;;;;3.38;3.10;;;;;;;;;;5118546;27;20660;-64
2023/05/08 10:42:05;;;;;;;3.40;3.20;;;;;;;;;;5117857;27;20199;-64
2023/05/08 10:44:32;;;;;;;3.35;3.15;;;;;;;;;;5117235;28;20198;-65
2023/05/08 10:47:08;;;;;;;3.30;3.10;;;;;;;;;;5118020;27;20209;-65
2023/05/08 10:49:40;;;;;;;3.50;3.20;;;;;;;;;;5117254;28;20570;-64
2023/05/08 10:52:10;;;;;;;3.60;3.30;;;;;;;;;;5117705;28;20203;-65
2023/05/08 10:54:43;;;;;;;3.42;3.13;;;;;;;;;;5117704;28;20221;-64
2023/05/08 10:57:11;;;;;;;3.30;3.10;;;;;;;;;;5117502;28;20245;-65
2023/05/08 10:59:39;;;;;;;3.05;2.85;;;;;;;;;;5117927;28;20203;-64
2023/05/08 11:02:08;;;;;;;3.20;3.00;;;;;;;;;;5116968;28;20199;-65
2023/05/08 11:04:36;;;;;;;3.35;3.15;;;;;;;;;;5117115;28;20218;-65
2023/05/08 11:07:04;;;;;;;3.22;3.03;;;;;;;;;;5117153;28;20199;-65
2023/05/08 11:09:47;;;;;;;3.17;2.97;;;;;;;;;;5118014;28;20306;-65
2023/05/08 11:12:22;;;;;;;3.45;3.25;;;;;;;;;;5116790;28;20271;-65
2023/05/08 11:14:56;;;;;;;3.22;3.03;;;;;;;;;;5117085;28;20210;-65
2023/05/08 11:17:26;;;;;;;3.20;3.00;;;;;;;;;;5117368;28;20226;-64
2023/05/08 11:19:57;;;;;;;3.10;2.90;;;;;;;;;;5116304;28;20207;-64
2023/05/08 11:22:27;;;;;;;2.80;2.60;;;;;;;;;;5117701;28;20545;-65
2023/05/08 11:24:55;;;;;;;3.10;2.90;;;;;;;;;;5116637;28;20572;-64
2023/05/08 11:27:33;;;;;;;3.28;3.08;;;;;;;;;;5116393;28;20199;-64
2023/05/08 11:30:19;;;;;;;3.13;2.92;;;;;;;;;;5116922;28;20574;-64
2023/05/08 11:33:13;;;;;;;3.47;3.28;;;;;;;;;;5117045;28;20481;-64
2023/05/08 11:35:45;;;;;;;2.80;2.60;;;;;;;;;;5115923;28;20610;-64
2023/05/08 11:38:15;;;;;;;2.88;2.67;;;;;;;;;;5115939;28;20587;-64
2023/05/08 11:40:45;;;;;;;2.83;2.63;;;;;;;;;;5116155;28;20206;-65
2023/05/08 11:43:20;;;;;;;2.80;2.60;;;;;;;;;;5115576;28;20205;-64
2023/05/08 11:45:48;;;;;;;3.10;2.90;;;;;;;;;;5116967;28;20198;-64
2023/05/08 11:48:17;;;;;;;2.97;2.78;;;;;;;;;;5116936;28;20210;-64
2023/05/08 11:50:45;;;;;;;3.15;2.85;;;;;;;;;;5116657;28;20202;-65
2023/05/08 11:53:12;;;;;;;2.85;2.65;;;;;;;;;;5116077;27;20222;-64
2023/05/08 11:55:40;;;;;;;2.88;2.67;;;;;;;;;;5116851;28;20203;-64
2023/05/08 11:58:12;;;;;;;2.83;2.63;;;;;;;;;;5116305;28;20218;-65
2023/05/08 12:00:43;;;;;;;2.88;2.67;;;;;;;;;;5115982;28;20323;-66
2023/05/08 12:03:13;;;;;;;3.05;2.85;;;;;;;;;;5116285;28;20263;-65
2023/05/08 12:05:42;;;;;;;2.95;2.75;;;;;;;;;;5116243;28;20203;-65
2023/05/08 12:08:10;;;;;;;2.40;2.30;;;;;;;;;;5116294;28;20298;-64
2023/05/08 12:10:41;;;;;;;2.85;2.65;;;;;;;;;;5115943;28;20207;-64
2023/05/08 12:13:18;;;;;;;2.70;2.50;;;;;;;;;;5115745;28;20235;-64
2023/05/08 12:15:46;;;;;;;2.80;2.60;;;;;;;;;;5116326;28;20237;-64
2023/05/08 12:18:13;;;;;;;2.90;2.70;;;;;;;;;;5116342;28;20291;-64
2023/05/08 12:20:42;;;;;;;2.70;2.50;;;;;;;;;;5116380;28;20199;-65
2023/05/08 12:23:10;;;;;;;2.65;2.45;;;;;;;;;;5116503;28;20199;-65
2023/05/08 12:25:38;;;;;;;2.40;2.30;;;;;;;;;;5115480;28;20246;-65
2023/05/08 12:28:07;;;;;;;2.58;2.40;;;;;;;;;;5114984;28;20316;-65
2023/05/08 12:30:35;;;;;;;2.60;2.42;;;;;;;;;;5114431;28;20203;-64
2023/05/08 12:33:03;;;;;;;2.38;2.20;;;;;;;;;;5114907;28;20203;-64
2023/05/08 12:35:31;;;;;;;2.30;2.20;;;;;;;;;;5114980;27;20210;-65
2023/05/08 12:38:03;;;;;;;2.60;2.40;;;;;;;;;;5115345;28;20227;-64
2023/05/08 12:40:31;;;;;;;2.63;2.42;;;;;;;;;;5115432;28;20203;-64
2023/05/08 12:43:00;;;;;;;2.50;2.30;;;;;;;;;;5116213;28;20214;-64
2023/05/08 12:45:29;;;;;;;2.42;2.30;;;;;;;;;;5115917;28;20203;-64
2023/05/08 12:47:59;;;;;;;2.40;2.30;;;;;;;;;;5114553;28;20202;-64
2023/05/08 12:50:29;;;;;;;2.50;2.30;;;;;;;;;;5114957;28;20574;-64
2023/05/08 12:53:02;;;;;;;2.40;2.30;;;;;;;;;;5114375;28;20211;-64
2023/05/08 12:55:31;;;;;;;2.83;2.63;;;;;;;;;;5114342;28;20290;-65
2023/05/08 12:58:03;;;;;;;2.35;2.25;;;;;;;;;;5115068;28;20234;-65
2023/05/08 13:00:38;;;;;;;2.45;2.35;;;;;;;;;;5114900;28;20206;-64
2023/05/08 13:03:06;;;;;;;2.40;2.30;;;;;;;;;;5095502;28;20210;-64
2023/05/08 13:05:35;;;;;;;2.33;2.22;;;;;;;;;;5094746;28;20771;-64
2023/05/08 13:08:02;;;;;;;2.00;1.90;;;;;;;;;;5095153;28;20195;-65
2023/05/08 13:10:50;;;;;;;2.20;2.10;;;;;;;;;;5094559;28;20195;-64
2023/05/08 13:13:18;;;;;;;2.30;2.20;;;;;;;;;;5095139;28;20207;-64
2023/05/08 13:15:46;;;;;;;2.20;2.10;;;;;;;;;;5094211;28;20207;-64
2023/05/08 13:18:13;;;;;;;2.45;2.25;;;;;;;;;;5094499;28;20227;-64
2023/05/08 13:20:41;;;;;;;2.20;2.10;;;;;;;;;;5094373;28;20219;-64
2023/05/08 13:23:09;;;;;;;2.38;2.28;;;;;;;;;;5094545;28;20587;-64
2023/05/08 13:25:37;;;;;;;2.20;2.10;;;;;;;;;;5093890;28;20231;-64
2023/05/08 13:28:06;;;;;;;2.40;2.20;;;;;;;;;;5094158;28;20463;-64
2023/05/08 13:30:34;;;;;;;2.33;2.20;;;;;;;;;;5094987;28;20501;-64
2023/05/08 13:33:01;;;;;;;2.20;2.10;;;;;;;;;;5094603;28;20597;-64
2023/05/08 13:35:29;;;;;;;2.28;2.08;;;;;;;;;;5094097;28;20294;-64
2023/05/08 13:37:56;;;;;;;2.30;2.20;;;;;;;;;;5093915;28;20232;-65
2023/05/08 13:40:25;;;;;;;2.25;2.15;;;;;;;;;;5094211;28;20203;-64
2023/05/08 13:42:52;;;;;;;3.15;2.58;;;;;;;;;;5095130;28;20199;-63
2023/05/08 13:45:21;;;;;;;3.28;2.42;;;;;;;;;;5094606;28;20234;-64
2023/05/08 13:47:49;;;;;;;2.50;2.30;;;;;;;;;;5093905;28;20196;-64
2023/05/08 13:50:18;;;;;;;2.40;2.15;;;;;;;;;;5093389;28;20211;-63
2023/05/08 13:52:45;;;;;;;3.03;2.60;;;;;;;;;;5093724;28;20290;-63
2023/05/08 13:55:13;;;;;;;2.80;2.47;;;;;;;;;;5093219;28;20218;-63
2023/05/08 13:57:41;;;;;;;2.72;2.28;;;;;;;;;;5093734;28;20503;-63
2023/05/08 14:00:09;;;;;;;2.90;2.50;;;;;;;;;;5097249;28;20215;-63
2023/05/08 14:02:38;;;;;;;2.40;2.30;;;;;;;;;;5097695;28;20202;-63
2023/05/08 14:05:07;;;;;;;2.80;2.60;;;;;;;;;;5098892;28;20594;-63
2023/05/08 14:07:35;;;;;;;2.60;2.40;;;;;;;;;;5097960;28;20200;-63
2023/05/08 14:10:05;;;;;;;4.55;2.63;;;;;;;;;;5097746;28;20207;-64
2023/05/08 14:12:35;;;;;;;3.83;2.60;;;;;;;;;;5097828;28;20222;-63
2023/05/08 14:15:03;;;;;;;4.22;2.72;;;;;;;;;;5097671;28;20692;-63
2023/05/08 14:17:31;;;;;;;3.55;2.72;;;;;;;;;;5098152;28;20224;-64
2023/05/08 14:19:59;;;;;;;2.88;2.42;;;;;;;;;;5097346;28;20264;-64
2023/05/08 14:22:27;;;;;;;2.70;2.50;;;;;;;;;;5097589;28;20204;-64
2023/05/08 14:24:54;;;;;;;2.95;2.75;;;;;;;;;;5098209;28;20395;-64
2023/05/08 14:27:22;;;;;;;4.55;2.97;;;;;;;;;;5098080;28;20207;-64
2023/05/08 14:29:49;;;;;;;3.00;2.80;;;;;;;;;;5098247;28;20213;-64
2023/05/08 14:32:17;;;;;;;2.70;2.50;;;;;;;;;;5097936;28;20212;-65
2023/05/08 14:34:44;;;;;;;3.95;2.70;;;;;;;;;;5097315;28;20211;-64
2023/05/08 14:37:13;;;;;;;2.78;2.58;;;;;;;;;;5097310;28;20237;-65
2023/05/08 14:39:41;;;;;;;3.03;2.83;;;;;;;;;;5097783;28;20199;-65
2023/05/08 14:42:08;;;;;;;2.72;2.47;;;;;;;;;;5096660;28;20196;-64
2023/05/08 14:44:35;;;;;;;2.70;2.50;;;;;;;;;;5097001;28;20203;-64
2023/05/08 14:47:03;;;;;;;2.80;2.60;;;;;;;;;;5096974;28;20203;-64